createdAt,value
2022-12-18T00:00:53.853Z,39.05
2022-12-18T00:11:04.026Z,42.80
2022-12-18T00:21:11.488Z,45.05
2022-12-18T00:31:16.849Z,43.70
2022-12-18T00:41:19.496Z,45.45
2022-12-18T00:51:22.862Z,46.78
2022-12-18T01:01:24.859Z,46.20
2022-12-18T01:11:28.257Z,43.40
2022-12-18T01:21:30.239Z,38.75
2022-12-18T01:31:35.018Z,35.97
2022-12-18T01:41:37.584Z,44.28
2022-12-18T01:51:40.961Z,35.88
2022-12-18T02:01:43.134Z,33.67
2022-12-18T02:11:54.446Z,37.63
2022-12-18T02:22:18.637Z,37.20
2022-12-18T02:32:26.217Z,32.30
2022-12-18T02:42:29.461Z,32.08
2022-12-18T02:52:42.459Z,33.30
2022-12-18T03:02:49.536Z,37.75
2022-12-18T03:12:59.844Z,31.17
2022-12-18T03:23:07.602Z,32.30
2022-12-18T03:33:16.317Z,36.50
2022-12-18T03:43:24.296Z,29.40
2022-12-18T03:53:35.009Z,38.58
2022-12-18T04:03:38.964Z,31.35
2022-12-18T04:13:44.090Z,29.15
2022-12-18T04:23:46.154Z,36.22
2022-12-18T04:33:49.432Z,26.80
2022-12-18T04:43:51.302Z,31.23
2022-12-18T04:53:54.985Z,34.40
2022-12-18T05:03:56.969Z,33.03
2022-12-18T05:14:00.277Z,41.60
2022-12-18T05:24:02.195Z,28.98
2022-12-18T05:34:05.537Z,30.33
2022-12-18T05:44:07.452Z,39.70
2022-12-18T05:54:10.755Z,36.85
2022-12-18T06:04:13.074Z,35.90
2022-12-18T06:14:16.379Z,37.85
2022-12-18T06:24:18.503Z,33.67
2022-12-18T06:34:21.808Z,30.83
2022-12-18T06:44:23.711Z,35.10
2022-12-18T06:54:27.277Z,32.20
2022-12-18T07:04:29.989Z,41.35
2022-12-18T07:14:33.340Z,29.35
2022-12-18T07:24:35.382Z,33.95
2022-12-18T07:34:39.326Z,25.98
2022-12-18T07:44:41.416Z,33.50
2022-12-18T07:54:44.792Z,33.50
2022-12-18T08:04:46.728Z,35.70
2022-12-18T08:14:49.976Z,29.95
2022-12-18T08:24:52.023Z,35.45
2022-12-18T08:34:55.376Z,31.95
2022-12-18T08:44:57.295Z,34.50
2022-12-18T08:55:00.568Z,29.77
2022-12-18T09:05:02.493Z,30.05
2022-12-18T09:15:07.048Z,39.92
2022-12-18T09:25:09.056Z,38.40
2022-12-18T09:35:12.593Z,38.67
2022-12-18T09:45:15.992Z,37.38
2022-12-18T09:55:25.327Z,37.83
2022-12-18T10:05:35.069Z,35.28
2022-12-18T10:15:46.193Z,29.10
2022-12-18T10:25:55.039Z,39.35
2022-12-18T10:35:58.407Z,28.80
2022-12-18T10:46:06.510Z,30.08
2022-12-18T10:56:10.364Z,30.38
2022-12-18T11:06:14.633Z,29.02
2022-12-18T11:16:21.166Z,29.70
2022-12-18T11:26:35.532Z,31.55
2022-12-18T11:36:41.524Z,31.80
2022-12-18T11:46:48.905Z,38.72
2022-12-18T11:56:56.549Z,31.00
2022-12-18T12:07:12.992Z,34.63
2022-12-18T12:17:38.506Z,38.55
2022-12-18T12:27:49.835Z,33.72
2022-12-18T12:38:05.358Z,30.48
2022-12-18T12:48:14.904Z,32.05
2022-12-18T12:58:27.625Z,35.10
2022-12-18T13:19:46.010Z,28.15
2022-12-18T13:29:48.547Z,20.17
2022-12-18T13:39:51.842Z,27.63
2022-12-18T13:49:54.131Z,22.20
2022-12-18T13:59:57.975Z,23.15
2022-12-18T14:10:12.115Z,25.23
2022-12-18T14:30:26.856Z,22.25
2022-12-18T14:40:30.256Z,18.65
2022-12-18T14:50:32.223Z,19.85
2022-12-18T15:00:42.266Z,17.95
2022-12-18T15:10:48.916Z,19.47
2022-12-18T15:20:54.191Z,17.10
2022-12-18T15:31:07.435Z,17.77
2022-12-18T15:41:14.539Z,19.55
2022-12-18T15:51:19.080Z,15.32
2022-12-18T16:01:24.667Z,16.85
2022-12-18T16:11:28.618Z,12.75
2022-12-18T16:21:34.098Z,10.98
2022-12-18T16:31:36.516Z,12.63
2022-12-18T16:41:39.909Z,10.05
2022-12-18T16:51:47.776Z,6.75
2022-12-18T17:01:52.631Z,10.95
2022-12-18T17:11:54.958Z,7.22
2022-12-18T17:21:58.340Z,10.10
2022-12-18T17:32:00.419Z,10.00
2022-12-18T17:42:04.178Z,10.18
2022-12-18T17:52:07.416Z,5.28
2022-12-18T18:02:14.070Z,7.68
2022-12-18T18:12:16.118Z,8.98
2022-12-18T18:22:19.690Z,6.28
2022-12-18T18:32:22.485Z,10.65
2022-12-18T18:42:25.764Z,6.10
2022-12-18T18:52:27.690Z,5.63
2022-12-18T19:02:31.094Z,5.75
2022-12-18T19:12:34.050Z,7.93
2022-12-18T19:22:37.364Z,5.13
2022-12-18T19:32:39.262Z,7.78
2022-12-18T19:42:42.584Z,9.30
2022-12-18T19:52:44.546Z,7.45
2022-12-18T20:02:47.906Z,5.30
2022-12-18T20:12:50.311Z,7.15
2022-12-18T20:23:33.240Z,8.07
2022-12-18T20:33:37.021Z,6.65
2022-12-18T20:43:40.604Z,6.18
2022-12-18T20:53:43.541Z,3.20
2022-12-18T21:03:47.368Z,9.15
2022-12-18T21:13:49.365Z,3.17
2022-12-18T21:23:52.763Z,6.80
2022-12-18T21:34:00.957Z,2.60
2022-12-18T21:44:47.749Z,3.35
2022-12-18T21:54:49.653Z,2.33
2022-12-18T22:04:52.992Z,3.05
2022-12-18T22:14:55.105Z,2.45
2022-12-18T22:24:58.413Z,3.10
2022-12-18T22:35:07.999Z,1.52
2022-12-18T22:45:14.025Z,2.22
2022-12-18T22:55:16.086Z,1.63
2022-12-18T23:05:19.360Z,2.20
2022-12-18T23:15:26.014Z,1.63
2022-12-18T23:25:31.274Z,4.13
2022-12-18T23:35:33.195Z,10.25
2022-12-18T23:45:38.656Z,41.15
2022-12-18T23:55:41.881Z,5.50
